SKAR Información del Aeropuerto

Información de la pista
Pista 02 Longitud 7045 ft Ancho 118 ft
Elevación 3968 ft Umbral 0 ft Rumbo 13
Pista 20 Longitud 7045 ft Ancho 118 ft
Elevación 3979 ft Umbral 0 ft Rumbo 193
Frecuencias del Aeropuerto
Tipo APP Nombre PEREIRA AP Frecuencia 119.9 MHZ
Tipo RDO Nombre ARMENIA RD Frecuencia 348.8 MHZ
Tipo TWR Nombre TWR Frecuencia 118.5 MHZ
Ayudas Aeroportuarias
Tipo NDB Nombre Armenia Frecuencia 315 KHZ
Información de Meteorología & NOTAM
ADDS - METARS form results

(0544 UTC 20 July 2019)
Data provider http://aviationweather.gov/metar/data/
 
METAR text: SKAR 200500Z 00000KT 9999 FEW017 SCT080 21/16 A2998
Conditions at: SKAR (ARMENIA/EL EDEN , CO) observed 0500 UTC 20 July 2019
Temperature: 21.0°C (70°F)
Dewpoint: 16.0°C (61°F) [RH = 73%]
Pressure (altimeter): 29.98 inches Hg (1015.3 mb)
Winds: calm
Visibility: 6 or more miles (10+ km)
Ceiling: at least 12,000 feet AGL
Clouds: few clouds at 1700 feet AGL
scattered clouds at 8000 feet AGL
Weather: no significant weather observed at this time